Terminal Aerodrome Forecast
Issued by NWS

Home | Current Version | Previous Version | Text Only | Print | Product List | Glossary On
Versions: 1 2 3 4 5 6 7 8 9 10 11 12 13 14 15 16 17 18 19 20 21 22 23 24 25 26 27 28 29 30 31
000
FTUS46 KPQR 101628 AAA
TAFONP
TAF AMD
KONP 101628Z 1016/1112 19015G25KT P6SM BKN015 OVC060
      TEMPO 1016/1020 3SM -RA BR SCT010 OVC020
     FM102000 20014G20KT 5SM -SHRA BR SCT020 OVC040
     FM110200 12005KT P6SM OVC050=

USA.gov is the U.S. government's official web portal to all federal, state and local government web resources and services.